Data ze zpráv METAR

Na této stránce "Data ze zpráv METAR" si můžete prohlédnout aktuální data o počasí z českých letišť.

LKKB - Kbely, Czech Republic
Distance from station: JJZ 98km
Aktualizováno v: 19/12/2018 01:00
Polojasno
Polojasno
 Vítr od V
Vítr: V 13 km/h
Teplota vzduchu: -1°C
Wind Chill: -6°C
Rosný bod: -2°C
Vlhkost: 93%
Tlak vzduchu: 1023 hPa
Clouds: Polojasno
Visibility: 9 km
2018/12/19 00:00 LKKB 190000Z 09007KT 9000 NSC M01/M02 Q1023
LKPR - Prague/Ruzyne, Czech Republic
Distance from station: JJZ 108km
Aktualizováno v: 19/12/2018 01:30
Polojasno
Polojasno
 Vítr od VJV
Vítr: VJV 9 km/h
Teplota vzduchu: -2°C
Wind Chill: -6°C
Rosný bod: -3°C
Vlhkost: 93%
Tlak vzduchu: 1022 hPa
Clouds: Polojasno
Visibility: 7 km
2018/12/19 00:30 LKPR 190030Z 11005KT 090V190 7000 NSC M02/M03 Q1022 R24/29//95 R30/35//95 NOSIG
 
LKPD - Pardubice, Czech Republic
Distance from station: JJV 111km
Aktualizováno v: 19/12/2018 01:00
Zataženo
Zataženo
 Vítr od V
Vítr: V 13 km/h
Teplota vzduchu: 2°C
Wind Chill: -1°C
Rosný bod: -1°C
Vlhkost: 81%
Tlak vzduchu: 1024 hPa
Clouds: Zataženo
Visibility: 10 km
Cloud details: Zataženo 518 m
2018/12/19 00:00 LKPD 190000Z 10007KT 9999 OVC017 02/M01 Q1024
LKCV - Caslav, Czech Republic
Distance from station: JJV 113km
Aktualizováno v: 19/12/2018 01:00
Zataženo
Zataženo
 Vítr od JV
Vítr: JV 22 km/h
Teplota vzduchu: 2°C
Wind Chill: -3°C
Rosný bod: 0°C
Vlhkost: 87%
Tlak vzduchu: 1024 hPa
Clouds: Zataženo
Visibility: 10 km
Cloud details: Zataženo 488 m
2018/12/19 00:00 LKCV 190000Z 13012KT 9999 OVC016 02/00 Q1024 NOSIG RMK BLU BLU
 
LKKV - Karlovy Vary, Czech Republic
Distance from station: ZJZ 173km
Aktualizováno v: 19/12/2018 01:15
Mist, Few clouds
Mist, Few clouds
 Vítr od VJV
Vítr: VJV 9 km/h
Teplota vzduchu: -4°C
Wind Chill: -8°C
Rosný bod: -5°C
Vlhkost: 93%
Tlak vzduchu: 1019 hPa
Souhrn: Mist
Clouds: Few Clouds
Visibility: 3 km
Cloud details: Few Clouds 122 m
2018/12/19 00:15 LKKV 190015Z 11005KT 3000 BR FEW004 M04/M05 Q1019 R29/////// RMK REG QNH 1017
LKLN - Plzen Line, Czech Republic
Distance from station: JZ 189km
Aktualizováno v: 19/12/2018 01:00
Jasno
Jasno
 Vítr od varies
Vítr: varies 2 km/h
Teplota vzduchu: -2°C
Rosný bod: -2°C
Vlhkost: 100%
Tlak vzduchu: 1022 hPa
Clouds: Jasno
Visibility: 9 km
2018/12/19 00:00 LKLN 190000Z AUTO VRB01KT 9000 NCD M02/M02 Q1022
 
LKNA - Namest, Czech Republic
Distance from station: JJV 209km
Aktualizováno v: 19/12/2018 01:00
Freezing fog, Zataženo
Freezing fog, Zataženo
 Vítr od VJV
Vítr: VJV 13 km/h
Teplota vzduchu: -1°C
Wind Chill: -6°C
Rosný bod: -1°C
Vlhkost: 100%
Tlak vzduchu: 1024 hPa
Souhrn: Freezing Fog
Clouds: Zataženo
Visibility: 0 km
Cloud details: Zataženo 30 m
2018/12/19 00:00 LKNA 190000Z 11007KT 0400 R31/1200 FZFG VV001 M01/M01 Q1024 RMK RED
LKTB - Brno/Turany, Czech Republic
Distance from station: JJV 230km
Aktualizováno v: 19/12/2018 01:30
Zataženo
Zataženo
 Vítr od V
Vítr: V 9 km/h
Teplota vzduchu: 0°C
Wind Chill: -3°C
Rosný bod: -1°C
Vlhkost: 93%
Tlak vzduchu: 1026 hPa
Clouds: Zataženo
Visibility: 8 km
Cloud details: Zataženo 274 m
2018/12/19 00:30 LKTB 190030Z 10005KT 8000 OVC009 00/M01 Q1026 NOSIG